sensor_id;sensor_type;location;lat;lon;timestamp;pressure;altitude;pressure_sealevel;temperature;humidity
13593;BME280;6867;50.998;4.250;2022-12-17T00:00:23;101654.47;;;-3.30;70.66
13593;BME280;6867;50.998;4.250;2022-12-17T00:03:09;101648.03;;;-3.26;70.49
13593;BME280;6867;50.998;4.250;2022-12-17T00:05:53;101648.63;;;-3.21;70.35
13593;BME280;6867;50.998;4.250;2022-12-17T00:08:37;101643.72;;;-3.27;70.38
13593;BME280;6867;50.998;4.250;2022-12-17T00:11:21;101643.00;;;-3.29;70.34
13593;BME280;6867;50.998;4.250;2022-12-17T00:14:06;101629.19;;;-3.33;70.36
13593;BME280;6867;50.998;4.250;2022-12-17T00:16:51;101629.84;;;-3.29;70.32
13593;BME280;6867;50.998;4.250;2022-12-17T00:19:36;101642.44;;;-3.34;70.36
13593;BME280;6867;50.998;4.250;2022-12-17T00:22:20;101658.53;;;-3.26;70.47
13593;BME280;6867;50.998;4.250;2022-12-17T00:25:04;101677.41;;;-3.19;70.82
13593;BME280;6867;50.998;4.250;2022-12-17T00:27:49;101680.69;;;-3.16;70.71
13593;BME280;6867;50.998;4.250;2022-12-17T00:30:34;101665.13;;;-3.19;70.88
13593;BME280;6867;50.998;4.250;2022-12-17T00:33:19;101674.69;;;-3.18;70.89
13593;BME280;6867;50.998;4.250;2022-12-17T00:36:08;101667.00;;;-3.21;70.69
13593;BME280;6867;50.998;4.250;2022-12-17T00:38:52;101665.50;;;-3.25;70.79
13593;BME280;6867;50.998;4.250;2022-12-17T00:41:36;101653.22;;;-3.24;70.29
13593;BME280;6867;50.998;4.250;2022-12-17T00:44:21;101663.63;;;-3.23;70.72
13593;BME280;6867;50.998;4.250;2022-12-17T00:47:06;101662.88;;;-3.25;70.71
13593;BME280;6867;50.998;4.250;2022-12-17T00:49:51;101655.38;;;-3.31;70.56
13593;BME280;6867;50.998;4.250;2022-12-17T00:52:35;101649.75;;;-3.39;70.71
13593;BME280;6867;50.998;4.250;2022-12-17T00:55:19;101648.47;;;-3.46;70.52
13593;BME280;6867;50.998;4.250;2022-12-17T00:58:03;101643.50;;;-3.51;70.56
13593;BME280;6867;50.998;4.250;2022-12-17T01:00:49;101645.38;;;-3.53;70.51
13593;BME280;6867;50.998;4.250;2022-12-17T01:03:35;101646.97;;;-3.51;70.08
13593;BME280;6867;50.998;4.250;2022-12-17T01:06:24;101652.22;;;-3.51;70.62
13593;BME280;6867;50.998;4.250;2022-12-17T01:09:08;101645.47;;;-3.55;70.39
13593;BME280;6867;50.998;4.250;2022-12-17T01:11:53;101641.25;;;-3.57;70.28
13593;BME280;6867;50.998;4.250;2022-12-17T01:14:41;101641.34;;;-3.59;70.45
13593;BME280;6867;50.998;4.250;2022-12-17T01:17:26;101646.50;;;-3.57;70.27
13593;BME280;6867;50.998;4.250;2022-12-17T01:20:12;101633.84;;;-3.65;70.12
13593;BME280;6867;50.998;4.250;2022-12-17T01:22:56;101635.63;;;-3.65;70.20
13593;BME280;6867;50.998;4.250;2022-12-17T01:25:40;101637.50;;;-3.67;70.17
13593;BME280;6867;50.998;4.250;2022-12-17T01:28:24;101644.34;;;-3.65;70.11
13593;BME280;6867;50.998;4.250;2022-12-17T01:31:08;101640.97;;;-3.67;70.13
13593;BME280;6867;50.998;4.250;2022-12-17T01:33:53;101636.84;;;-3.71;69.87
13593;BME280;6867;50.998;4.250;2022-12-17T01:36:38;101638.94;;;-3.76;70.20
13593;BME280;6867;50.998;4.250;2022-12-17T01:39:23;101646.97;;;-3.79;70.13
13593;BME280;6867;50.998;4.250;2022-12-17T01:42:10;101651.19;;;-3.77;70.04
13593;BME280;6867;50.998;4.250;2022-12-17T01:44:56;101648.56;;;-3.77;70.00
13593;BME280;6867;50.998;4.250;2022-12-17T01:47:43;101666.09;;;-3.77;69.99
13593;BME280;6867;50.998;4.250;2022-12-17T01:50:30;101660.47;;;-3.71;70.17
13593;BME280;6867;50.998;4.250;2022-12-17T01:53:21;101659.72;;;-3.73;69.90
13593;BME280;6867;50.998;4.250;2022-12-17T01:56:08;101664.97;;;-3.73;70.02
13593;BME280;6867;50.998;4.250;2022-12-17T01:58:53;101666.47;;;-3.69;69.89
13593;BME280;6867;50.998;4.250;2022-12-17T02:01:37;101676.31;;;-3.72;69.79
13593;BME280;6867;50.998;4.250;2022-12-17T02:04:21;101673.63;;;-3.71;70.00
13593;BME280;6867;50.998;4.250;2022-12-17T02:07:32;101671.72;;;-3.69;69.85
13593;BME280;6867;50.998;4.250;2022-12-17T02:10:24;101670.78;;;-3.68;69.62
13593;BME280;6867;50.998;4.250;2022-12-17T02:13:13;101675.66;;;-3.62;69.67
13593;BME280;6867;50.998;4.250;2022-12-17T02:16:02;101677.28;;;-3.59;69.66
13593;BME280;6867;50.998;4.250;2022-12-17T02:18:52;101666.19;;;-3.64;69.67
13593;BME280;6867;50.998;4.250;2022-12-17T02:21:38;101676.63;;;-3.63;69.53
13593;BME280;6867;50.998;4.250;2022-12-17T02:24:28;101685.78;;;-3.56;69.66
13593;BME280;6867;50.998;4.250;2022-12-17T02:27:17;101677.47;;;-3.62;69.81
13593;BME280;6867;50.998;4.250;2022-12-17T02:30:04;101685.41;;;-3.64;69.77
13593;BME280;6867;50.998;4.250;2022-12-17T02:32:49;101686.19;;;-3.62;69.56
13593;BME280;6867;50.998;4.250;2022-12-17T02:35:38;101678.75;;;-3.69;69.60
13593;BME280;6867;50.998;4.250;2022-12-17T02:38:25;101670.31;;;-3.74;69.41
13593;BME280;6867;50.998;4.250;2022-12-17T02:41:12;101680.16;;;-3.78;69.86
13593;BME280;6867;50.998;4.250;2022-12-17T02:43:59;101676.31;;;-3.87;69.48
13593;BME280;6867;50.998;4.250;2022-12-17T02:46:44;101689.53;;;-3.88;69.85
13593;BME280;6867;50.998;4.250;2022-12-17T02:49:29;101687.84;;;-3.89;69.70
13593;BME280;6867;50.998;4.250;2022-12-17T02:52:15;101697.97;;;-3.83;69.71
13593;BME280;6867;50.998;4.250;2022-12-17T02:55:01;101704.06;;;-3.83;69.64
13593;BME280;6867;50.998;4.250;2022-12-17T02:57:44;101703.31;;;-3.85;69.83
13593;BME280;6867;50.998;4.250;2022-12-17T03:00:30;101712.06;;;-3.84;69.86
13593;BME280;6867;50.998;4.250;2022-12-17T03:03:14;101699.84;;;-3.85;69.56
13593;BME280;6867;50.998;4.250;2022-12-17T03:05:58;101710.16;;;-3.82;69.70
13593;BME280;6867;50.998;4.250;2022-12-17T03:08:42;101700.59;;;-3.83;69.67
13593;BME280;6867;50.998;4.250;2022-12-17T03:11:27;101704.06;;;-3.83;69.67
13593;BME280;6867;50.998;4.250;2022-12-17T03:14:23;101715.41;;;-3.82;69.49
13593;BME280;6867;50.998;4.250;2022-12-17T03:17:08;101711.94;;;-3.83;69.90
13593;BME280;6867;50.998;4.250;2022-12-17T03:19:52;101716.44;;;-3.85;69.39
13593;BME280;6867;50.998;4.250;2022-12-17T03:22:36;101721.88;;;-3.88;69.47
13593;BME280;6867;50.998;4.250;2022-12-17T03:25:20;101725.44;;;-3.89;69.41
13593;BME280;6867;50.998;4.250;2022-12-17T03:28:04;101729.66;;;-3.86;69.59
13593;BME280;6867;50.998;4.250;2022-12-17T03:30:48;101742.44;;;-3.80;69.76
13593;BME280;6867;50.998;4.250;2022-12-17T03:33:34;101749.94;;;-3.74;69.80
13593;BME280;6867;50.998;4.250;2022-12-17T03:36:18;101739.59;;;-3.77;69.60
13593;BME280;6867;50.998;4.250;2022-12-17T03:39:02;101737.34;;;-3.83;69.50
13593;BME280;6867;50.998;4.250;2022-12-17T03:41:47;101750.31;;;-3.80;69.76
13593;BME280;6867;50.998;4.250;2022-12-17T03:44:31;101745.97;;;-3.81;69.58
13593;BME280;6867;50.998;4.250;2022-12-17T03:47:15;101745.97;;;-3.81;69.43
13593;BME280;6867;50.998;4.250;2022-12-17T03:50:00;101750.31;;;-3.80;69.90
13593;BME280;6867;50.998;4.250;2022-12-17T03:52:44;101752.84;;;-3.79;69.78
13593;BME280;6867;50.998;4.250;2022-12-17T03:55:30;101756.97;;;-3.74;69.71
13593;BME280;6867;50.998;4.250;2022-12-17T03:58:14;101743.19;;;-3.78;69.42
13593;BME280;6867;50.998;4.250;2022-12-17T04:00:58;101745.81;;;-3.78;69.25
13593;BME280;6867;50.998;4.250;2022-12-17T04:03:42;101732.28;;;-3.86;69.63
13593;BME280;6867;50.998;4.250;2022-12-17T04:06:28;101736.88;;;-3.90;69.59
13593;BME280;6867;50.998;4.250;2022-12-17T04:09:08;101744.06;;;-3.93;69.60
13593;BME280;6867;50.998;4.250;2022-12-17T04:11:52;101741.94;;;-4.01;69.67
13593;BME280;6867;50.998;4.250;2022-12-17T04:14:36;101749.88;;;-4.03;69.64
13593;BME280;6867;50.998;4.250;2022-12-17T04:17:21;101747.34;;;-4.04;69.79
13593;BME280;6867;50.998;4.250;2022-12-17T04:20:06;101753.34;;;-4.02;69.60
13593;BME280;6867;50.998;4.250;2022-12-17T04:22:53;101762.66;;;-3.96;70.01
13593;BME280;6867;50.998;4.250;2022-12-17T04:25:37;101762.66;;;-3.96;70.05
13593;BME280;6867;50.998;4.250;2022-12-17T04:28:21;101757.84;;;-4.04;70.02
13593;BME280;6867;50.998;4.250;2022-12-17T04:31:06;101758.84;;;-4.07;69.88
13593;BME280;6867;50.998;4.250;2022-12-17T04:33:50;101769.28;;;-4.05;70.15
13593;BME280;6867;50.998;4.250;2022-12-17T04:36:33;101775.16;;;-4.02;70.13
13593;BME280;6867;50.998;4.250;2022-12-17T04:39:19;101779.31;;;-3.97;70.11
13593;BME280;6867;50.998;4.250;2022-12-17T04:42:03;101772.22;;;-3.95;70.10
13593;BME280;6867;50.998;4.250;2022-12-17T04:44:47;101781.75;;;-3.94;70.37
13593;BME280;6867;50.998;4.250;2022-12-17T04:47:31;101782.03;;;-3.99;70.10
13593;BME280;6867;50.998;4.250;2022-12-17T04:50:14;101778.00;;;-4.05;70.13
13593;BME280;6867;50.998;4.250;2022-12-17T04:53:00;101792.91;;;-4.05;70.66
13593;BME280;6867;50.998;4.250;2022-12-17T04:55:45;101789.41;;;-4.06;69.92
13593;BME280;6867;50.998;4.250;2022-12-17T04:58:30;101778.53;;;-4.14;69.84
13593;BME280;6867;50.998;4.250;2022-12-17T05:01:14;101784.44;;;-4.10;70.20
13593;BME280;6867;50.998;4.250;2022-12-17T05:03:58;101775.66;;;-4.25;70.42
13593;BME280;6867;50.998;4.250;2022-12-17T05:06:42;101783.59;;;-4.27;70.42
13593;BME280;6867;50.998;4.250;2022-12-17T05:09:25;101773.88;;;-4.24;70.49
13593;BME280;6867;50.998;4.250;2022-12-17T05:12:11;101772.53;;;-4.32;70.47
13593;BME280;6867;50.998;4.250;2022-12-17T05:14:55;101770.06;;;-4.35;70.44
13593;BME280;6867;50.998;4.250;2022-12-17T05:17:39;101768.97;;;-4.31;69.98
13593;BME280;6867;50.998;4.250;2022-12-17T05:20:23;101783.13;;;-4.33;70.30
13593;BME280;6867;50.998;4.250;2022-12-17T05:23:07;101777.94;;;-4.35;70.50
13593;BME280;6867;50.998;4.250;2022-12-17T05:25:56;101775.78;;;-4.42;70.22
13593;BME280;6867;50.998;4.250;2022-12-17T05:28:45;101785.06;;;-4.37;70.50
13593;BME280;6867;50.998;4.250;2022-12-17T05:31:41;101786.19;;;-4.41;70.66
13593;BME280;6867;50.998;4.250;2022-12-17T05:34:25;101793.88;;;-4.38;70.03
13593;BME280;6867;50.998;4.250;2022-12-17T05:37:09;101802.22;;;-4.31;70.68
13593;BME280;6867;50.998;4.250;2022-12-17T05:39:53;101826.78;;;-4.32;70.84
13593;BME280;6867;50.998;4.250;2022-12-17T05:42:37;101838.53;;;-4.23;71.37
13593;BME280;6867;50.998;4.250;2022-12-17T05:45:22;101814.34;;;-4.29;71.10
13593;BME280;6867;50.998;4.250;2022-12-17T05:48:07;101804.94;;;-4.33;70.79
13593;BME280;6867;50.998;4.250;2022-12-17T05:50:51;101811.88;;;-4.32;70.79
13593;BME280;6867;50.998;4.250;2022-12-17T05:53:35;101808.00;;;-4.40;70.52
13593;BME280;6867;50.998;4.250;2022-12-17T05:56:19;101802.00;;;-4.42;70.50
13593;BME280;6867;50.998;4.250;2022-12-17T05:59:03;101801.16;;;-4.43;70.15
13593;BME280;6867;50.998;4.250;2022-12-17T06:01:49;101805.81;;;-4.48;70.44
13593;BME280;6867;50.998;4.250;2022-12-17T06:04:32;101791.25;;;-4.54;70.34
13593;BME280;6867;50.998;4.250;2022-12-17T06:07:16;101774.16;;;-4.61;70.14
13593;BME280;6867;50.998;4.250;2022-12-17T06:10:00;101778.41;;;-4.58;69.77
13593;BME280;6867;50.998;4.250;2022-12-17T06:12:55;101778.41;;;-4.58;70.39
13593;BME280;6867;50.998;4.250;2022-12-17T06:15:39;101782.63;;;-4.56;70.54
13593;BME280;6867;50.998;4.250;2022-12-17T06:18:25;101795.81;;;-4.57;69.77
13593;BME280;6867;50.998;4.250;2022-12-17T06:21:09;101790.69;;;-4.59;70.30
13593;BME280;6867;50.998;4.250;2022-12-17T06:23:54;101800.81;;;-4.53;70.23
13593;BME280;6867;50.998;4.250;2022-12-17T06:26:38;101799.72;;;-4.48;70.39
13593;BME280;6867;50.998;4.250;2022-12-17T06:29:22;101804.22;;;-4.51;70.02
13593;BME280;6867;50.998;4.250;2022-12-17T06:32:06;101812.09;;;-4.51;70.51
13593;BME280;6867;50.998;4.250;2022-12-17T06:34:51;101797.59;;;-4.58;69.99
13593;BME280;6867;50.998;4.250;2022-12-17T06:37:35;101796.00;;;-4.60;70.36
13593;BME280;6867;50.998;4.250;2022-12-17T06:40:19;101807.41;;;-4.61;70.32
13593;BME280;6867;50.998;4.250;2022-12-17T06:43:03;101806.81;;;-4.66;70.09
13593;BME280;6867;50.998;4.250;2022-12-17T06:45:47;101803.53;;;-4.70;70.09
13593;BME280;6867;50.998;4.250;2022-12-17T06:48:34;101802.53;;;-4.67;70.61
13593;BME280;6867;50.998;4.250;2022-12-17T06:51:20;101816.31;;;-4.64;70.62
13593;BME280;6867;50.998;4.250;2022-12-17T06:54:04;101821.22;;;-4.58;70.44
13593;BME280;6867;50.998;4.250;2022-12-17T06:56:48;101828.22;;;-4.58;70.45
13593;BME280;6867;50.998;4.250;2022-12-17T06:59:32;101835.06;;;-4.56;70.74
13593;BME280;6867;50.998;4.250;2022-12-17T07:02:30;101843.63;;;-4.52;70.23
13593;BME280;6867;50.998;4.250;2022-12-17T07:05:15;101844.56;;;-4.53;70.44
13593;BME280;6867;50.998;4.250;2022-12-17T07:08:00;101858.34;;;-4.49;70.50
13593;BME280;6867;50.998;4.250;2022-12-17T07:10:44;101844.47;;;-4.52;70.51
13593;BME280;6867;50.998;4.250;2022-12-17T07:13:40;101851.56;;;-4.54;70.33
13593;BME280;6867;50.998;4.250;2022-12-17T07:16:25;101840.41;;;-4.57;70.34
13593;BME280;6867;50.998;4.250;2022-12-17T07:19:09;101848.53;;;-4.62;70.58
13593;BME280;6867;50.998;4.250;2022-12-17T07:21:53;101850.31;;;-4.62;70.31
13593;BME280;6867;50.998;4.250;2022-12-17T07:24:38;101859.84;;;-4.61;70.60
13593;BME280;6867;50.998;4.250;2022-12-17T07:27:23;101863.16;;;-4.58;70.36
13593;BME280;6867;50.998;4.250;2022-12-17T07:30:08;101872.41;;;-4.51;70.14
13593;BME280;6867;50.998;4.250;2022-12-17T07:32:57;101889.56;;;-4.45;70.42
13593;BME280;6867;50.998;4.250;2022-12-17T07:35:41;101899.97;;;-4.43;70.29
13593;BME280;6867;50.998;4.250;2022-12-17T07:38:40;101907.50;;;-4.37;70.48
13593;BME280;6867;50.998;4.250;2022-12-17T07:41:25;101905.84;;;-4.38;70.68
13593;BME280;6867;50.998;4.250;2022-12-17T07:44:09;101900.75;;;-4.41;70.60
13593;BME280;6867;50.998;4.250;2022-12-17T07:46:54;101904.13;;;-4.39;70.27
13593;BME280;6867;50.998;4.250;2022-12-17T07:49:37;101924.19;;;-4.38;69.81
13593;BME280;6867;50.998;4.250;2022-12-17T07:52:21;101941.03;;;-4.27;70.23
13593;BME280;6867;50.998;4.250;2022-12-17T07:55:06;101960.59;;;-4.16;70.59
13593;BME280;6867;50.998;4.250;2022-12-17T07:57:58;102009.28;;;-3.95;71.31
13593;BME280;6867;50.998;4.250;2022-12-17T08:00:42;102009.81;;;-3.88;71.42
13593;BME280;6867;50.998;4.250;2022-12-17T08:03:40;102050.44;;;-3.64;72.25
13593;BME280;6867;50.998;4.250;2022-12-17T08:06:25;102043.88;;;-3.55;72.00
13593;BME280;6867;50.998;4.250;2022-12-17T08:09:08;102020.56;;;-3.45;71.58
13593;BME280;6867;50.998;4.250;2022-12-17T08:11:53;102024.75;;;-3.43;71.44
13593;BME280;6867;50.998;4.250;2022-12-17T08:14:38;102061.53;;;-3.27;72.22
13593;BME280;6867;50.998;4.250;2022-12-17T08:17:22;102080.13;;;-3.30;72.85
13593;BME280;6867;50.998;4.250;2022-12-17T08:20:07;102114.34;;;-3.16;73.51
13593;BME280;6867;50.998;4.250;2022-12-17T08:22:51;102142.34;;;-3.15;74.51
13593;BME280;6867;50.998;4.250;2022-12-17T08:25:35;102131.28;;;-2.90;74.04
13593;BME280;6867;50.998;4.250;2022-12-17T08:28:19;102112.44;;;-2.82;73.68
13593;BME280;6867;50.998;4.250;2022-12-17T08:31:05;102123.19;;;-2.71;73.71
13593;BME280;6867;50.998;4.250;2022-12-17T08:33:49;102110.03;;;-2.71;73.31
13593;BME280;6867;50.998;4.250;2022-12-17T08:36:33;102124.13;;;-2.72;73.22
13593;BME280;6867;50.998;4.250;2022-12-17T08:39:17;102112.59;;;-2.69;72.98
13593;BME280;6867;50.998;4.250;2022-12-17T08:42:01;102108.44;;;-2.73;72.86
13593;BME280;6867;50.998;4.250;2022-12-17T08:44:45;102114.69;;;-2.76;73.21
13593;BME280;6867;50.998;4.250;2022-12-17T08:47:30;102112.59;;;-2.69;72.78
13593;BME280;6867;50.998;4.250;2022-12-17T08:50:14;102126.53;;;-2.53;73.16
13593;BME280;6867;50.998;4.250;2022-12-17T08:52:59;102159.34;;;-2.44;73.72
13593;BME280;6867;50.998;4.250;2022-12-17T08:55:44;102175.19;;;-2.30;73.75
13593;BME280;6867;50.998;4.250;2022-12-17T08:58:28;102177.56;;;-2.26;73.87
13593;BME280;6867;50.998;4.250;2022-12-17T09:01:11;102182.00;;;-2.12;73.73
13593;BME280;6867;50.998;4.250;2022-12-17T09:03:57;102184.59;;;-1.96;73.80
13593;BME280;6867;50.998;4.250;2022-12-17T09:06:41;102190.03;;;-1.85;73.78
13593;BME280;6867;50.998;4.250;2022-12-17T09:09:25;102197.66;;;-1.80;73.87
13593;BME280;6867;50.998;4.250;2022-12-17T09:12:24;102209.69;;;-1.76;74.35
13593;BME280;6867;50.998;4.250;2022-12-17T09:15:08;102209.91;;;-1.65;74.44
13593;BME280;6867;50.998;4.250;2022-12-17T09:17:52;102209.63;;;-1.60;74.48
13593;BME280;6867;50.998;4.250;2022-12-17T09:20:38;102214.25;;;-1.49;74.24
13593;BME280;6867;50.998;4.250;2022-12-17T09:23:31;102224.31;;;-1.42;74.21
13593;BME280;6867;50.998;4.250;2022-12-17T09:26:15;102238.34;;;-1.27;74.86
13593;BME280;6867;50.998;4.250;2022-12-17T09:29:10;102242.94;;;-1.02;75.05
13593;BME280;6867;50.998;4.250;2022-12-17T09:31:54;102232.00;;;-0.96;75.07
13593;BME280;6867;50.998;4.250;2022-12-17T09:34:38;102238.38;;;-0.86;74.51
13593;BME280;6867;50.998;4.250;2022-12-17T09:37:20;102233.06;;;-0.71;74.77
13593;BME280;6867;50.998;4.250;2022-12-17T09:40:07;102240.41;;;-0.62;74.64
13593;BME280;6867;50.998;4.250;2022-12-17T09:42:57;102250.31;;;-0.66;75.50
13593;BME280;6867;50.998;4.250;2022-12-17T09:45:47;102258.59;;;-0.58;75.26
13593;BME280;6867;50.998;4.250;2022-12-17T09:48:38;102256.28;;;-0.49;75.27
13593;BME280;6867;50.998;4.250;2022-12-17T09:51:27;102260.19;;;-0.42;75.00
13593;BME280;6867;50.998;4.250;2022-12-17T09:54:18;102270.53;;;-0.25;75.23
13593;BME280;6867;50.998;4.250;2022-12-17T09:57:09;102262.47;;;-0.36;75.14
13593;BME280;6867;50.998;4.250;2022-12-17T09:59:55;102254.91;;;-0.42;75.16
13593;BME280;6867;50.998;4.250;2022-12-17T10:02:51;102275.56;;;-0.35;75.28
13593;BME280;6867;50.998;4.250;2022-12-17T10:05:35;102279.50;;;-0.28;75.01
13593;BME280;6867;50.998;4.250;2022-12-17T10:08:20;102281.09;;;-0.25;75.34
13593;BME280;6867;50.998;4.250;2022-12-17T10:11:18;102284.13;;;-0.04;75.15
13593;BME280;6867;50.998;4.250;2022-12-17T10:14:16;102281.03;;;-0.11;75.83
13593;BME280;6867;50.998;4.250;2022-12-17T10:17:00;102277.06;;;0.09;75.46
13593;BME280;6867;50.998;4.250;2022-12-17T10:19:48;102264.69;;;0.10;75.10
13593;BME280;6867;50.998;4.250;2022-12-17T10:22:41;102271.56;;;0.25;74.85
13593;BME280;6867;50.998;4.250;2022-12-17T10:25:26;102268.00;;;0.26;75.10
13593;BME280;6867;50.998;4.250;2022-12-17T10:28:13;102275.81;;;0.40;75.31
13593;BME280;6867;50.998;4.250;2022-12-17T10:30:58;102263.78;;;0.36;74.62
13593;BME280;6867;50.998;4.250;2022-12-17T10:33:43;102260.09;;;0.39;74.58
13593;BME280;6867;50.998;4.250;2022-12-17T10:36:28;102262.53;;;0.42;74.49
13593;BME280;6867;50.998;4.250;2022-12-17T10:39:15;102261.25;;;0.35;75.17
13593;BME280;6867;50.998;4.250;2022-12-17T10:41:59;102278.16;;;0.45;74.98
13593;BME280;6867;50.998;4.250;2022-12-17T10:44:45;102271.06;;;0.45;75.08
13593;BME280;6867;50.998;4.250;2022-12-17T10:47:32;102292.22;;;0.58;75.48
13593;BME280;6867;50.998;4.250;2022-12-17T10:50:18;102294.56;;;0.76;74.99
13593;BME280;6867;50.998;4.250;2022-12-17T10:53:05;102293.78;;;0.99;75.33
13593;BME280;6867;50.998;4.250;2022-12-17T10:55:59;102269.13;;;0.98;74.99
13593;BME280;6867;50.998;4.250;2022-12-17T10:58:44;102269.56;;;1.05;74.77
13593;BME280;6867;50.998;4.250;2022-12-17T11:01:30;102288.69;;;1.21;75.42
13593;BME280;6867;50.998;4.250;2022-12-17T11:04:23;102287.91;;;1.32;75.41
13593;BME280;6867;50.998;4.250;2022-12-17T11:07:09;102262.53;;;1.17;74.71
13593;BME280;6867;50.998;4.250;2022-12-17T11:09:56;102256.91;;;1.21;74.45
13593;BME280;6867;50.998;4.250;2022-12-17T11:12:45;102249.91;;;1.20;74.06
13593;BME280;6867;50.998;4.250;2022-12-17T11:15:35;102255.22;;;1.20;74.36
13593;BME280;6867;50.998;4.250;2022-12-17T11:18:26;102265.53;;;1.36;74.08
13593;BME280;6867;50.998;4.250;2022-12-17T11:21:14;102264.69;;;1.36;74.22
13593;BME280;6867;50.998;4.250;2022-12-17T11:24:00;102280.13;;;1.42;74.63
13593;BME280;6867;50.998;4.250;2022-12-17T11:26:49;102270.44;;;1.54;74.12
13593;BME280;6867;50.998;4.250;2022-12-17T11:29:34;102256.97;;;1.33;74.28
13593;BME280;6867;50.998;4.250;2022-12-17T11:35:43;102257.16;;;1.42;74.61
13593;BME280;6867;50.998;4.250;2022-12-17T11:38:33;102251.75;;;1.44;74.39
13593;BME280;6867;50.998;4.250;2022-12-17T11:41:27;102273.44;;;1.49;74.51
13593;BME280;6867;50.998;4.250;2022-12-17T11:44:23;102276.00;;;1.38;75.03
13593;BME280;6867;50.998;4.250;2022-12-17T11:47:19;102281.84;;;1.43;74.95
13593;BME280;6867;50.998;4.250;2022-12-17T11:50:14;102251.06;;;1.29;74.10
13593;BME280;6867;50.998;4.250;2022-12-17T11:53:24;102249.94;;;1.44;74.34
13593;BME280;6867;50.998;4.250;2022-12-17T11:56:14;102264.16;;;1.43;74.67
13593;BME280;6867;50.998;4.250;2022-12-17T11:59:07;102271.41;;;1.53;75.13
13593;BME280;6867;50.998;4.250;2022-12-17T12:02:03;102280.16;;;1.66;74.96
13593;BME280;6867;50.998;4.250;2022-12-17T12:05:03;102274.97;;;1.64;75.19
13593;BME280;6867;50.998;4.250;2022-12-17T12:07:58;102264.81;;;1.58;75.07
13593;BME280;6867;50.998;4.250;2022-12-17T12:10:55;102256.91;;;1.45;75.07
13593;BME280;6867;50.998;4.250;2022-12-17T12:13:45;102255.31;;;1.56;74.88
13593;BME280;6867;50.998;4.250;2022-12-17T12:16:34;102237.50;;;1.58;74.75
13593;BME280;6867;50.998;4.250;2022-12-17T12:19:27;102233.66;;;1.38;74.78
13593;BME280;6867;50.998;4.250;2022-12-17T12:22:16;102257.72;;;1.59;75.03
13593;BME280;6867;50.998;4.250;2022-12-17T12:25:21;102249.94;;;1.68;74.93
13593;BME280;6867;50.998;4.250;2022-12-17T12:28:18;102251.41;;;1.72;74.72
13593;BME280;6867;50.998;4.250;2022-12-17T12:31:12;102232.19;;;1.82;74.62
13593;BME280;6867;50.998;4.250;2022-12-17T12:34:05;102225.75;;;1.73;74.39
13593;BME280;6867;50.998;4.250;2022-12-17T12:36:53;102226.38;;;1.77;74.20
13593;BME280;6867;50.998;4.250;2022-12-17T12:39:43;102217.03;;;1.95;73.89
13593;BME280;6867;50.998;4.250;2022-12-17T12:42:34;102218.19;;;2.15;73.62
13593;BME280;6867;50.998;4.250;2022-12-17T12:45:31;102224.19;;;2.17;73.50
13593;BME280;6867;50.998;4.250;2022-12-17T12:48:27;102212.09;;;1.90;73.32
13593;BME280;6867;50.998;4.250;2022-12-17T12:51:17;102213.59;;;2.06;73.42
13593;BME280;6867;50.998;4.250;2022-12-17T12:54:22;102209.47;;;2.13;72.89
13593;BME280;6867;50.998;4.250;2022-12-17T12:57:28;102200.50;;;2.27;73.06
13593;BME280;6867;50.998;4.250;2022-12-17T13:00:33;102206.16;;;2.33;73.27
13593;BME280;6867;50.998;4.250;2022-12-17T13:03:23;102198.31;;;2.32;72.59
13593;BME280;6867;50.998;4.250;2022-12-17T13:06:09;102196.53;;;2.43;72.49
13593;BME280;6867;50.998;4.250;2022-12-17T13:08:37;102198.44;;;2.41;72.13
13593;BME280;6867;50.998;4.250;2022-12-17T13:11:27;102191.09;;;2.45;72.49
13593;BME280;6867;50.998;4.250;2022-12-17T13:13:58;102190.97;;;2.46;72.52
13593;BME280;6867;50.998;4.250;2022-12-17T13:16:39;102202.06;;;2.63;72.21
13593;BME280;6867;50.998;4.250;2022-12-17T13:19:18;102195.81;;;2.53;72.24
13593;BME280;6867;50.998;4.250;2022-12-17T13:21:46;102165.50;;;2.21;72.42
13593;BME280;6867;50.998;4.250;2022-12-17T13:24:23;102179.28;;;2.27;73.30
13593;BME280;6867;50.998;4.250;2022-12-17T13:26:50;102192.47;;;1.93;73.50
13593;BME280;6867;50.998;4.250;2022-12-17T13:29:22;102206.19;;;1.87;74.20
13593;BME280;6867;50.998;4.250;2022-12-17T13:32:07;102215.88;;;1.75;74.91
13593;BME280;6867;50.998;4.250;2022-12-17T13:34:49;102212.59;;;1.60;74.66
13593;BME280;6867;50.998;4.250;2022-12-17T13:37:26;102221.78;;;1.67;74.89
13593;BME280;6867;50.998;4.250;2022-12-17T13:40:00;102221.81;;;1.55;75.14
13593;BME280;6867;50.998;4.250;2022-12-17T13:42:31;102229.19;;;1.62;75.44
13593;BME280;6867;50.998;4.250;2022-12-17T13:44:59;102224.25;;;1.58;75.31
13593;BME280;6867;50.998;4.250;2022-12-17T13:47:29;102228.25;;;1.63;75.43
13593;BME280;6867;50.998;4.250;2022-12-17T13:49:57;102218.31;;;1.54;75.54
13593;BME280;6867;50.998;4.250;2022-12-17T13:52:25;102219.06;;;1.56;75.45
13593;BME280;6867;50.998;4.250;2022-12-17T13:54:53;102231.34;;;1.57;75.67
13593;BME280;6867;50.998;4.250;2022-12-17T13:57:22;102220.09;;;1.42;75.65
13593;BME280;6867;50.998;4.250;2022-12-17T13:59:49;102218.34;;;1.30;75.62
13593;BME280;6867;50.998;4.250;2022-12-17T14:02:23;102224.97;;;1.36;75.46
13593;BME280;6867;50.998;4.250;2022-12-17T14:04:52;102223.66;;;1.30;75.74
13593;BME280;6867;50.998;4.250;2022-12-17T14:07:20;102225.66;;;1.27;75.15
13593;BME280;6867;50.998;4.250;2022-12-17T14:09:48;102219.25;;;1.18;75.58
13593;BME280;6867;50.998;4.250;2022-12-17T14:12:16;102218.94;;;1.10;75.69
13593;BME280;6867;50.998;4.250;2022-12-17T14:14:49;102221.16;;;1.03;75.85
13593;BME280;6867;50.998;4.250;2022-12-17T14:17:17;102229.56;;;0.97;76.08
13593;BME280;6867;50.998;4.250;2022-12-17T14:19:45;102233.13;;;0.96;75.81
13593;BME280;6867;50.998;4.250;2022-12-17T14:22:15;102236.41;;;0.99;75.60
13593;BME280;6867;50.998;4.250;2022-12-17T14:24:45;102238.69;;;0.93;75.62
13593;BME280;6867;50.998;4.250;2022-12-17T14:27:23;102230.44;;;0.85;75.40
13593;BME280;6867;50.998;4.250;2022-12-17T14:29:50;102219.25;;;0.68;75.42
13593;BME280;6867;50.998;4.250;2022-12-17T14:32:24;102221.13;;;0.66;75.62
13593;BME280;6867;50.998;4.250;2022-12-17T14:34:52;102214.94;;;0.55;75.52
13593;BME280;6867;50.998;4.250;2022-12-17T14:37:22;102311.06;;;1.05;78.39
13593;BME280;6867;50.998;4.250;2022-12-17T14:39:53;102335.31;;;1.85;78.65